sensor_id;sensor_type;location;lat;lon;timestamp;pressure;altitude;pressure_sealevel;temperature
64904;BMP280;51401;48.882;12.598;2022-09-20T00:00:38;98040.19;;;9.94
64904;BMP280;51401;48.882;12.598;2022-09-20T00:03:04;98040.53;;;9.92
64904;BMP280;51401;48.882;12.598;2022-09-20T00:05:32;98037.59;;;9.97
64904;BMP280;51401;48.882;12.598;2022-09-20T00:07:58;98037.59;;;9.97
64904;BMP280;51401;48.882;12.598;2022-09-20T00:10:23;98039.84;;;9.98
64904;BMP280;51401;48.882;12.598;2022-09-20T00:12:49;98034.31;;;10.00
64904;BMP280;51401;48.882;12.598;2022-09-20T00:15:14;98035.75;;;9.94
64904;BMP280;51401;48.882;12.598;2022-09-20T00:17:40;98030.91;;;9.93
64904;BMP280;51401;48.882;12.598;2022-09-20T00:20:05;98030.56;;;9.94
64904;BMP280;51401;48.882;12.598;2022-09-20T00:22:30;98036.84;;;9.93
64904;BMP280;51401;48.882;12.598;2022-09-20T00:24:56;98031.66;;;9.93
64904;BMP280;51401;48.882;12.598;2022-09-20T00:27:21;98029.47;;;9.95
64904;BMP280;51401;48.882;12.598;2022-09-20T00:29:47;98026.09;;;9.91
64904;BMP280;51401;48.882;12.598;2022-09-20T00:32:12;98030.88;;;9.89
64904;BMP280;51401;48.882;12.598;2022-09-20T00:34:37;98029.44;;;9.92
64904;BMP280;51401;48.882;12.598;2022-09-20T00:37:21;98025.75;;;9.93
64904;BMP280;51401;48.882;12.598;2022-09-20T00:39:46;98030.19;;;9.92
64904;BMP280;51401;48.882;12.598;2022-09-20T00:42:15;98036.09;;;9.93
64904;BMP280;51401;48.882;12.598;2022-09-20T00:47:15;98032.06;;;9.98
64904;BMP280;51401;48.882;12.598;2022-09-20T00:49:42;98030.97;;;9.96
64904;BMP280;51401;48.882;12.598;2022-09-20T00:52:08;98029.84;;;9.94
64904;BMP280;51401;48.882;12.598;2022-09-20T00:54:33;98024.59;;;9.87
64904;BMP280;51401;48.882;12.598;2022-09-20T00:56:59;98027.88;;;9.84
64904;BMP280;51401;48.882;12.598;2022-09-20T00:59:33;98026.72;;;9.81
64904;BMP280;51401;48.882;12.598;2022-09-20T01:02:04;98023.44;;;9.84
64904;BMP280;51401;48.882;12.598;2022-09-20T01:04:30;98025.28;;;9.80
64904;BMP280;51401;48.882;12.598;2022-09-20T01:06:59;98023.06;;;9.82
64904;BMP280;51401;48.882;12.598;2022-09-20T01:09:26;98023.38;;;9.77
64904;BMP280;51401;48.882;12.598;2022-09-20T01:11:53;98020.88;;;9.84
64904;BMP280;51401;48.882;12.598;2022-09-20T01:14:20;98017.13;;;9.82
64904;BMP280;51401;48.882;12.598;2022-09-20T01:16:48;98017.06;;;9.75
64904;BMP280;51401;48.882;12.598;2022-09-20T01:21:47;98011.53;;;9.76
64904;BMP280;51401;48.882;12.598;2022-09-20T01:24:15;98011.88;;;9.75
64904;BMP280;51401;48.882;12.598;2022-09-20T01:26:53;98010.03;;;9.75
64904;BMP280;51401;48.882;12.598;2022-09-20T01:29:51;98010.03;;;9.75
64904;BMP280;51401;48.882;12.598;2022-09-20T01:32:22;98007.09;;;9.77
64904;BMP280;51401;48.882;12.598;2022-09-20T01:34:56;98008.56;;;9.74
64904;BMP280;51401;48.882;12.598;2022-09-20T01:37:25;98018.91;;;9.74
64904;BMP280;51401;48.882;12.598;2022-09-20T01:40:17;98015.22;;;9.75
64904;BMP280;51401;48.882;12.598;2022-09-20T01:42:59;98015.22;;;9.75
64904;BMP280;51401;48.882;12.598;2022-09-20T01:45:30;98018.59;;;9.79
64904;BMP280;51401;48.882;12.598;2022-09-20T01:48:02;98011.19;;;9.78
64904;BMP280;51401;48.882;12.598;2022-09-20T02:16:38;98013.09;;;9.84
64904;BMP280;51401;48.882;12.598;2022-09-20T02:25:11;98014.91;;;9.80
64904;BMP280;51401;48.882;12.598;2022-09-20T02:28:11;98010.41;;;9.74
64904;BMP280;51401;48.882;12.598;2022-09-20T02:31:10;98012.63;;;9.72
64904;BMP280;51401;48.882;12.598;2022-09-20T02:33:55;98019.34;;;9.80
64904;BMP280;51401;48.882;12.598;2022-09-20T02:39:09;98018.91;;;9.74
64904;BMP280;51401;48.882;12.598;2022-09-20T02:41:55;98021.09;;;9.72
64904;BMP280;51401;48.882;12.598;2022-09-20T02:47:16;98024.41;;;9.69
64904;BMP280;51401;48.882;12.598;2022-09-20T02:49:54;98025.91;;;9.70
64904;BMP280;51401;48.882;12.598;2022-09-20T02:55:20;98043.28;;;9.73
64904;BMP280;51401;48.882;12.598;2022-09-20T02:58:04;98043.41;;;9.80
64904;BMP280;51401;48.882;12.598;2022-09-20T03:00:44;98050.38;;;9.76
64904;BMP280;51401;48.882;12.598;2022-09-20T03:11:50;98055.94;;;9.78
64904;BMP280;51401;48.882;12.598;2022-09-20T03:14:19;98045.63;;;9.82
64904;BMP280;51401;48.882;12.598;2022-09-20T03:17:03;98050.38;;;9.76
64904;BMP280;51401;48.882;12.598;2022-09-20T03:22:20;98040.06;;;9.83
64904;BMP280;51401;48.882;12.598;2022-09-20T03:27:53;98036.34;;;9.81
64904;BMP280;51401;48.882;12.598;2022-09-20T03:30:45;98034.88;;;9.83
64904;BMP280;51401;48.882;12.598;2022-09-20T03:34:10;98030.41;;;9.77
64904;BMP280;51401;48.882;12.598;2022-09-20T03:36:53;98036.34;;;9.81
64904;BMP280;51401;48.882;12.598;2022-09-20T03:39:44;98037.81;;;9.78
64904;BMP280;51401;48.882;12.598;2022-09-20T03:42:14;98033.34;;;9.75
64904;BMP280;51401;48.882;12.598;2022-09-20T03:44:52;98033.34;;;9.75
64904;BMP280;51401;48.882;12.598;2022-09-20T04:10:15;98041.06;;;9.68
64904;BMP280;51401;48.882;12.598;2022-09-20T04:18:42;98045.34;;;9.58
64904;BMP280;51401;48.882;12.598;2022-09-20T04:23:59;98044.25;;;9.55
64904;BMP280;51401;48.882;12.598;2022-09-20T04:26:27;98036.09;;;9.57
64904;BMP280;51401;48.882;12.598;2022-09-20T04:28:59;98041.28;;;9.57
64904;BMP280;51401;48.882;12.598;2022-09-20T04:31:34;98046.09;;;9.55
64904;BMP280;51401;48.882;12.598;2022-09-20T04:34:01;98050.13;;;9.56
64904;BMP280;51401;48.882;12.598;2022-09-20T04:39:23;98058.66;;;9.56
64904;BMP280;51401;48.882;12.598;2022-09-20T04:48:13;98067.16;;;9.57
64904;BMP280;51401;48.882;12.598;2022-09-20T04:50:49;98072.81;;;9.62
64904;BMP280;51401;48.882;12.598;2022-09-20T04:56:19;98073.34;;;9.49
64904;BMP280;51401;48.882;12.598;2022-09-20T04:59:01;98065.50;;;9.42
64904;BMP280;51401;48.882;12.598;2022-09-20T05:13:00;98075.31;;;9.26
64904;BMP280;51401;48.882;12.598;2022-09-20T05:15:40;98077.84;;;9.23
64904;BMP280;51401;48.882;12.598;2022-09-20T05:18:41;98079.34;;;9.24
64904;BMP280;51401;48.882;12.598;2022-09-20T05:26:25;98077.84;;;9.23
64904;BMP280;51401;48.882;12.598;2022-09-20T05:29:18;98075.25;;;9.23
64904;BMP280;51401;48.882;12.598;2022-09-20T05:32:05;98093.38;;;9.23
64904;BMP280;51401;48.882;12.598;2022-09-20T05:37:50;98099.34;;;9.27
64904;BMP280;51401;48.882;12.598;2022-09-20T05:40:00;98098.19;;;9.24
64904;BMP280;51401;48.882;12.598;2022-09-20T05:48:11;98098.63;;;9.30
64904;BMP280;51401;48.882;12.598;2022-09-20T05:50:51;98108.97;;;9.30
64904;BMP280;51401;48.882;12.598;2022-09-20T05:56:24;98107.53;;;9.32
64904;BMP280;51401;48.882;12.598;2022-09-20T05:59:04;98109.84;;;9.37
64904;BMP280;51401;48.882;12.598;2022-09-20T06:01:38;98101.06;;;9.45
64904;BMP280;51401;48.882;12.598;2022-09-20T06:04:18;98110.94;;;9.68
64904;BMP280;51401;48.882;12.598;2022-09-20T06:06:54;98111.44;;;9.81
64904;BMP280;51401;48.882;12.598;2022-09-20T06:09:38;98117.06;;;9.86
64904;BMP280;51401;48.882;12.598;2022-09-20T06:12:46;98121.16;;;9.91
64904;BMP280;51401;48.882;12.598;2022-09-20T06:15:26;98117.06;;;9.86
64904;BMP280;51401;48.882;12.598;2022-09-20T06:18:25;98117.75;;;9.83
64904;BMP280;51401;48.882;12.598;2022-09-20T06:23:38;98117.25;;;9.71
64904;BMP280;51401;48.882;12.598;2022-09-20T06:26:13;98122.47;;;9.74
64904;BMP280;51401;48.882;12.598;2022-09-20T06:28:45;98124.28;;;9.70
64904;BMP280;51401;48.882;12.598;2022-09-20T06:31:11;98120.63;;;9.75
64904;BMP280;51401;48.882;12.598;2022-09-20T06:33:48;98125.78;;;9.75
64904;BMP280;51401;48.882;12.598;2022-09-20T06:36:22;98125.75;;;9.68
64904;BMP280;51401;48.882;12.598;2022-09-20T06:39:31;98123.56;;;9.70
64904;BMP280;51401;48.882;12.598;2022-09-20T06:42:19;98121.38;;;9.72
64904;BMP280;51401;48.882;12.598;2022-09-20T06:44:44;98123.72;;;9.87
64904;BMP280;51401;48.882;12.598;2022-09-20T06:47:10;98114.13;;;9.88
64904;BMP280;51401;48.882;12.598;2022-09-20T06:49:36;98120.09;;;9.95
64904;BMP280;51401;48.882;12.598;2022-09-20T06:52:12;98118.81;;;10.11
64904;BMP280;51401;48.882;12.598;2022-09-20T06:54:38;98122.13;;;9.76
64904;BMP280;51401;48.882;12.598;2022-09-20T06:57:12;98126.06;;;9.96
64904;BMP280;51401;48.882;12.598;2022-09-20T06:59:37;98125.56;;;10.19
64904;BMP280;51401;48.882;12.598;2022-09-20T07:02:03;98131.50;;;10.23
64904;BMP280;51401;48.882;12.598;2022-09-20T07:04:28;98124.81;;;10.19
64904;BMP280;51401;48.882;12.598;2022-09-20T07:07:01;98131.03;;;10.11
64904;BMP280;51401;48.882;12.598;2022-09-20T07:09:26;98126.84;;;10.03
64904;BMP280;51401;48.882;12.598;2022-09-20T07:11:52;98132.09;;;10.10
64904;BMP280;51401;48.882;12.598;2022-09-20T07:14:19;98137.41;;;10.24
64904;BMP280;51401;48.882;12.598;2022-09-20T07:16:44;98142.19;;;10.22
64904;BMP280;51401;48.882;12.598;2022-09-20T07:19:09;98144.94;;;10.35
64904;BMP280;51401;48.882;12.598;2022-09-20T07:21:35;98141.22;;;10.33
64904;BMP280;51401;48.882;12.598;2022-09-20T07:24:00;98142.59;;;10.24
64904;BMP280;51401;48.882;12.598;2022-09-20T07:26:27;98145.47;;;10.12
64904;BMP280;51401;48.882;12.598;2022-09-20T07:28:54;98146.41;;;10.33
64904;BMP280;51401;48.882;12.598;2022-09-20T07:31:22;98160.97;;;10.44
64904;BMP280;51401;48.882;12.598;2022-09-20T07:33:48;98149.63;;;10.62
64904;BMP280;51401;48.882;12.598;2022-09-20T07:36:14;98154.78;;;10.59
64904;BMP280;51401;48.882;12.598;2022-09-20T07:38:41;98154.97;;;10.80
64904;BMP280;51401;48.882;12.598;2022-09-20T07:41:08;98154.22;;;10.83
64904;BMP280;51401;48.882;12.598;2022-09-20T07:43:33;98147.72;;;10.53
64904;BMP280;51401;48.882;12.598;2022-09-20T07:45:59;98155.50;;;10.56
64904;BMP280;51401;48.882;12.598;2022-09-20T07:48:26;98156.44;;;10.84
64904;BMP280;51401;48.882;12.598;2022-09-20T07:51:12;98162.63;;;10.69
64904;BMP280;51401;48.882;12.598;2022-09-20T07:53:38;98159.34;;;10.76
64904;BMP280;51401;48.882;12.598;2022-09-20T07:56:08;98156.75;;;10.76
64904;BMP280;51401;48.882;12.598;2022-09-20T07:58:34;98156.44;;;10.81
64904;BMP280;51401;48.882;12.598;2022-09-20T08:01:03;98157.94;;;10.85
64904;BMP280;51401;48.882;12.598;2022-09-20T08:03:30;98154.16;;;10.76
64904;BMP280;51401;48.882;12.598;2022-09-20T08:06:07;98158.91;;;11.20
64904;BMP280;51401;48.882;12.598;2022-09-20T08:08:38;98166.53;;;11.59
64904;BMP280;51401;48.882;12.598;2022-09-20T08:11:06;98163.19;;;11.55
64904;BMP280;51401;48.882;12.598;2022-09-20T08:13:58;98164.03;;;11.80
64904;BMP280;51401;48.882;12.598;2022-09-20T08:16:25;98173.41;;;12.15
64904;BMP280;51401;48.882;12.598;2022-09-20T08:18:53;98180.09;;;12.51
64904;BMP280;51401;48.882;12.598;2022-09-20T08:21:26;98175.13;;;13.56
64904;BMP280;51401;48.882;12.598;2022-09-20T08:23:52;98164.31;;;13.54
64904;BMP280;51401;48.882;12.598;2022-09-20T08:26:22;98176.91;;;13.66
64904;BMP280;51401;48.882;12.598;2022-09-20T08:28:51;98171.50;;;14.00
64904;BMP280;51401;48.882;12.598;2022-09-20T08:31:18;98172.34;;;13.80
64904;BMP280;51401;48.882;12.598;2022-09-20T08:33:44;98171.03;;;13.48
64904;BMP280;51401;48.882;12.598;2022-09-20T08:36:18;98171.66;;;13.73
64904;BMP280;51401;48.882;12.598;2022-09-20T08:38:44;98166.53;;;13.56
64904;BMP280;51401;48.882;12.598;2022-09-20T08:43:55;98176.41;;;12.72
64904;BMP280;51401;48.882;12.598;2022-09-20T08:46:25;98174.88;;;12.44
64904;BMP280;51401;48.882;12.598;2022-09-20T08:48:51;98170.03;;;12.11
64904;BMP280;51401;48.882;12.598;2022-09-20T08:51:17;98168.09;;;11.84
64904;BMP280;51401;48.882;12.598;2022-09-20T08:53:46;98168.19;;;12.19
64904;BMP280;51401;48.882;12.598;2022-09-20T08:56:13;98166.72;;;12.38
64904;BMP280;51401;48.882;12.598;2022-09-20T08:58:38;98173.81;;;12.55
64904;BMP280;51401;48.882;12.598;2022-09-20T09:01:04;98171.19;;;12.59
64904;BMP280;51401;48.882;12.598;2022-09-20T09:03:31;98179.41;;;12.68
64904;BMP280;51401;48.882;12.598;2022-09-20T09:05:56;98179.81;;;13.75
64904;BMP280;51401;48.882;12.598;2022-09-20T09:08:32;98168.59;;;13.88
64904;BMP280;51401;48.882;12.598;2022-09-20T09:11:02;98168.22;;;13.86
64904;BMP280;51401;48.882;12.598;2022-09-20T09:13:49;98177.28;;;13.68
64904;BMP280;51401;48.882;12.598;2022-09-20T09:16:18;98171.75;;;13.52
64904;BMP280;51401;48.882;12.598;2022-09-20T09:18:45;98178.81;;;13.62
64904;BMP280;51401;48.882;12.598;2022-09-20T09:21:20;98171.44;;;14.14
64904;BMP280;51401;48.882;12.598;2022-09-20T09:26:37;98171.41;;;14.17
64904;BMP280;51401;48.882;12.598;2022-09-20T09:29:16;98170.56;;;14.27
64904;BMP280;51401;48.882;12.598;2022-09-20T09:31:43;98174.13;;;14.50
64904;BMP280;51401;48.882;12.598;2022-09-20T09:34:29;98170.22;;;14.72
64904;BMP280;51401;48.882;12.598;2022-09-20T09:36:56;98164.75;;;14.13
64904;BMP280;51401;48.882;12.598;2022-09-20T09:39:25;98159.88;;;14.12
64904;BMP280;51401;48.882;12.598;2022-09-20T09:41:51;98154.34;;;14.06
64904;BMP280;51401;48.882;12.598;2022-09-20T09:44:24;98149.34;;;13.65
64904;BMP280;51401;48.882;12.598;2022-09-20T09:46:52;98167.22;;;13.63
64904;BMP280;51401;48.882;12.598;2022-09-20T09:54:44;98155.56;;;17.79
64904;BMP280;51401;48.882;12.598;2022-09-20T10:00:18;98161.31;;;19.66
64904;BMP280;51401;48.882;12.598;2022-09-20T10:05:24;98148.94;;;18.77
64904;BMP280;51401;48.882;12.598;2022-09-20T10:13:43;98165.00;;;17.03
64904;BMP280;51401;48.882;12.598;2022-09-20T10:19:14;98147.75;;;17.25
64904;BMP280;51401;48.882;12.598;2022-09-20T10:27:21;98142.56;;;18.03
64904;BMP280;51401;48.882;12.598;2022-09-20T10:30:09;98139.44;;;19.32
64904;BMP280;51401;48.882;12.598;2022-09-20T10:38:31;98143.94;;;15.52
64904;BMP280;51401;48.882;12.598;2022-09-20T10:44:06;98156.22;;;14.52
64904;BMP280;51401;48.882;12.598;2022-09-20T10:52:27;98160.44;;;12.43
64904;BMP280;51401;48.882;12.598;2022-09-20T11:00:23;98162.84;;;13.50
64904;BMP280;51401;48.882;12.598;2022-09-20T11:03:00;98164.16;;;15.18
64904;BMP280;51401;48.882;12.598;2022-09-20T11:05:42;98169.03;;;16.88
64904;BMP280;51401;48.882;12.598;2022-09-20T11:08:14;98172.84;;;17.41
64904;BMP280;51401;48.882;12.598;2022-09-20T11:10:49;98161.34;;;19.54
64904;BMP280;51401;48.882;12.598;2022-09-20T11:13:23;98166.16;;;19.92
64904;BMP280;51401;48.882;12.598;2022-09-20T11:18:48;98151.47;;;18.37
64904;BMP280;51401;48.882;12.598;2022-09-20T11:21:46;98144.94;;;18.29
64904;BMP280;51401;48.882;12.598;2022-09-20T11:26:50;98154.25;;;16.59
64904;BMP280;51401;48.882;12.598;2022-09-20T11:29:36;98158.72;;;16.13
64904;BMP280;51401;48.882;12.598;2022-09-20T11:32:12;98152.44;;;14.57
64904;BMP280;51401;48.882;12.598;2022-09-20T11:34:49;98144.53;;;13.67
64904;BMP280;51401;48.882;12.598;2022-09-20T11:37:17;98154.81;;;12.96
64904;BMP280;51401;48.882;12.598;2022-09-20T11:39:54;98161.53;;;12.38
64904;BMP280;51401;48.882;12.598;2022-09-20T11:42:25;98160.03;;;12.17
64904;BMP280;51401;48.882;12.598;2022-09-20T11:44:53;98158.50;;;12.02
64904;BMP280;51401;48.882;12.598;2022-09-20T11:56:06;98154.78;;;12.07
64904;BMP280;51401;48.882;12.598;2022-09-20T11:58:48;98151.09;;;12.18
64904;BMP280;51401;48.882;12.598;2022-09-20T12:01:21;98158.19;;;12.52
64904;BMP280;51401;48.882;12.598;2022-09-20T12:03:51;98167.41;;;13.18
64904;BMP280;51401;48.882;12.598;2022-09-20T12:06:31;98157.88;;;14.33
64904;BMP280;51401;48.882;12.598;2022-09-20T12:08:59;98159.66;;;15.19
64904;BMP280;51401;48.882;12.598;2022-09-20T12:11:34;98158.56;;;16.01
64904;BMP280;51401;48.882;12.598;2022-09-20T12:14:04;98154.59;;;15.90
64904;BMP280;51401;48.882;12.598;2022-09-20T12:16:39;98148.38;;;15.25
64904;BMP280;51401;48.882;12.598;2022-09-20T12:19:08;98152.56;;;14.46
64904;BMP280;51401;48.882;12.598;2022-09-20T12:24:26;98150.94;;;13.42
64904;BMP280;51401;48.882;12.598;2022-09-20T12:26:54;98161.50;;;13.07
64904;BMP280;51401;48.882;12.598;2022-09-20T12:31:53;98155.59;;;12.48
64904;BMP280;51401;48.882;12.598;2022-09-20T12:39:23;98169.25;;;11.94
64904;BMP280;51401;48.882;12.598;2022-09-20T12:41:56;98166.56;;;11.66
64904;BMP280;51401;48.882;12.598;2022-09-20T12:57:56;98141.91;;;11.26
64904;BMP280;51401;48.882;12.598;2022-09-20T13:03:19;98145.75;;;11.52
64904;BMP280;51401;48.882;12.598;2022-09-20T13:05:49;98156.28;;;12.18
64904;BMP280;51401;48.882;12.598;2022-09-20T13:08:21;98151.59;;;13.66
64904;BMP280;51401;48.882;12.598;2022-09-20T13:11:06;98151.56;;;14.30
64904;BMP280;51401;48.882;12.598;2022-09-20T13:13:46;98151.75;;;14.53
64904;BMP280;51401;48.882;12.598;2022-09-20T13:19:03;98166.88;;;16.19
64904;BMP280;51401;48.882;12.598;2022-09-20T13:21:35;98163.06;;;16.88
64904;BMP280;51401;48.882;12.598;2022-09-20T13:24:02;98161.91;;;17.27
64904;BMP280;51401;48.882;12.598;2022-09-20T13:26:32;98171.63;;;17.46
64904;BMP280;51401;48.882;12.598;2022-09-20T13:28:58;98166.50;;;18.36
64904;BMP280;51401;48.882;12.598;2022-09-20T13:31:26;98155.47;;;18.57
64904;BMP280;51401;48.882;12.598;2022-09-20T13:33:52;98162.91;;;18.59
64904;BMP280;51401;48.882;12.598;2022-09-20T13:36:26;98154.16;;;18.65
64904;BMP280;51401;48.882;12.598;2022-09-20T13:38:55;98151.44;;;17.08
64904;BMP280;51401;48.882;12.598;2022-09-20T13:41:21;98151.00;;;16.29
64904;BMP280;51401;48.882;12.598;2022-09-20T13:43:48;98143.19;;;15.51
64904;BMP280;51401;48.882;12.598;2022-09-20T13:46:28;98144.59;;;14.97
64904;BMP280;51401;48.882;12.598;2022-09-20T13:49:15;98149.66;;;14.77
64904;BMP280;51401;48.882;12.598;2022-09-20T13:51:42;98150.41;;;14.35
64904;BMP280;51401;48.882;12.598;2022-09-20T13:54:19;98153.09;;;13.64
64904;BMP280;51401;48.882;12.598;2022-09-20T13:56:46;98144.28;;;13.34
64904;BMP280;51401;48.882;12.598;2022-09-20T13:59:12;98147.22;;;13.46
64904;BMP280;51401;48.882;12.598;2022-09-20T14:01:48;98147.00;;;12.82
64904;BMP280;51401;48.882;12.598;2022-09-20T14:04:15;98165.97;;;13.07
64904;BMP280;51401;48.882;12.598;2022-09-20T14:06:41;98169.31;;;13.00
64904;BMP280;51401;48.882;12.598;2022-09-20T14:09:12;98151.13;;;12.83
64904;BMP280;51401;48.882;12.598;2022-09-20T14:11:40;98158.56;;;12.81
64904;BMP280;51401;48.882;12.598;2022-09-20T14:14:06;98168.91;;;13.12
64904;BMP280;51401;48.882;12.598;2022-09-20T14:16:37;98164.84;;;13.01
64904;BMP280;51401;48.882;12.598;2022-09-20T14:19:04;98171.47;;;13.36
64904;BMP280;51401;48.882;12.598;2022-09-20T14:21:34;98157.75;;;13.19
64904;BMP280;51401;48.882;12.598;2022-09-20T14:24:31;98158.75;;;13.52
64904;BMP280;51401;48.882;12.598;2022-09-20T14:27:18;98157.28;;;13.44
64904;BMP280;51401;48.882;12.598;2022-09-20T14:29:53;98151.38;;;13.27
64904;BMP280;51401;48.882;12.598;2022-09-20T14:39:55;98162.88;;;13.39
64904;BMP280;51401;48.882;12.598;2022-09-20T14:42:39;98162.97;;;13.12
64904;BMP280;51401;48.882;12.598;2022-09-20T14:45:07;98160.66;;;13.34
64904;BMP280;51401;48.882;12.598;2022-09-20T14:47:38;98160.50;;;13.69
64904;BMP280;51401;48.882;12.598;2022-09-20T14:53:00;98151.22;;;13.64
64904;BMP280;51401;48.882;12.598;2022-09-20T14:55:25;98147.69;;;13.14
64904;BMP280;51401;48.882;12.598;2022-09-20T14:57:56;98147.25;;;13.43
64904;BMP280;51401;48.882;12.598;2022-09-20T15:00:22;98149.84;;;13.46
64904;BMP280;51401;48.882;12.598;2022-09-20T15:02:48;98150.19;;;13.45
64904;BMP280;51401;48.882;12.598;2022-09-20T15:05:20;98157.53;;;13.74
64904;BMP280;51401;48.882;12.598;2022-09-20T15:07:48;98158.22;;;14.38
64904;BMP280;51401;48.882;12.598;2022-09-20T15:10:14;98157.56;;;14.67
64904;BMP280;51401;48.882;12.598;2022-09-20T15:12:39;98151.78;;;13.99
64904;BMP280;51401;48.882;12.598;2022-09-20T15:15:07;98154.91;;;14.31
64904;BMP280;51401;48.882;12.598;2022-09-20T15:17:33;98154.03;;;15.20
64904;BMP280;51401;48.882;12.598;2022-09-20T15:19:58;98157.00;;;15.52
64904;BMP280;51401;48.882;12.598;2022-09-20T15:22:23;98156.38;;;15.96
64904;BMP280;51401;48.882;12.598;2022-09-20T15:24:49;98169.28;;;16.74
64904;BMP280;51401;48.882;12.598;2022-09-20T15:27:14;98160.22;;;16.98
64904;BMP280;51401;48.882;12.598;2022-09-20T15:29:40;98163.41;;;16.90
64904;BMP280;51401;48.882;12.598;2022-09-20T15:32:05;98166.91;;;17.02
64904;BMP280;51401;48.882;12.598;2022-09-20T15:34:31;98164.31;;;16.80
64904;BMP280;51401;48.882;12.598;2022-09-20T15:36:56;98163.56;;;16.60
64904;BMP280;51401;48.882;12.598;2022-09-20T15:39:22;98164.81;;;15.55
64904;BMP280;51401;48.882;12.598;2022-09-20T15:41:51;98160.09;;;15.10
64904;BMP280;51401;48.882;12.598;2022-09-20T15:44:16;98164.56;;;14.37
64904;BMP280;51401;48.882;12.598;2022-09-20T15:46:42;98168.84;;;14.11
64904;BMP280;51401;48.882;12.598;2022-09-20T15:49:10;98169.47;;;13.68
64904;BMP280;51401;48.882;12.598;2022-09-20T15:51:36;98168.69;;;13.78
64904;BMP280;51401;48.882;12.598;2022-09-20T15:54:03;98171.09;;;13.31
64904;BMP280;51401;48.882;12.598;2022-09-20T15:56:34;98171.94;;;12.97
64904;BMP280;51401;48.882;12.598;2022-09-20T15:59:03;98177.53;;;12.85
64904;BMP280;51401;48.882;12.598;2022-09-20T16:01:42;98177.13;;;12.73
64904;BMP280;51401;48.882;12.598;2022-09-20T16:06:36;98187.88;;;12.44
64904;BMP280;51401;48.882;12.598;2022-09-20T16:09:02;98182.34;;;12.38
64904;BMP280;51401;48.882;12.598;2022-09-20T16:11:28;98188.63;;;12.34
64904;BMP280;51401;48.882;12.598;2022-09-20T16:13:55;98191.22;;;12.34
64904;BMP280;51401;48.882;12.598;2022-09-20T16:16:21;98193.50;;;12.42
64904;BMP280;51401;48.882;12.598;2022-09-20T16:18:46;98191.63;;;12.36
64904;BMP280;51401;48.882;12.598;2022-09-20T16:21:30;98192.34;;;12.26
64904;BMP280;51401;48.882;12.598;2022-09-20T16:23:56;98196.41;;;12.20
64904;BMP280;51401;48.882;12.598;2022-09-20T16:26:24;98201.19;;;12.05
64904;BMP280;51401;48.882;12.598;2022-09-20T16:28:49;98194.84;;;11.92
64904;BMP280;51401;48.882;12.598;2022-09-20T16:34:15;98192.94;;;11.75
64904;BMP280;51401;48.882;12.598;2022-09-20T16:36:42;98203.69;;;11.70
64904;BMP280;51401;48.882;12.598;2022-09-20T16:39:11;98196.59;;;11.60
64904;BMP280;51401;48.882;12.598;2022-09-20T16:41:37;98205.09;;;11.54
64904;BMP280;51401;48.882;12.598;2022-09-20T16:44:04;98204.28;;;11.43
64904;BMP280;51401;48.882;12.598;2022-09-20T16:46:30;98200.59;;;11.44
64904;BMP280;51401;48.882;12.598;2022-09-20T16:48:57;98204.59;;;11.35
64904;BMP280;51401;48.882;12.598;2022-09-20T16:51:29;98213.13;;;11.32
64904;BMP280;51401;48.882;12.598;2022-09-20T16:53:59;98214.25;;;11.31
64904;BMP280;51401;48.882;12.598;2022-09-20T16:56:27;98216.06;;;11.27
64904;BMP280;51401;48.882;12.598;2022-09-20T16:58:54;98214.63;;;11.33
64904;BMP280;51401;48.882;12.598;2022-09-20T17:01:20;98213.84;;;11.25
64904;BMP280;51401;48.882;12.598;2022-09-20T17:03:46;98219.38;;;11.24
64904;BMP280;51401;48.882;12.598;2022-09-20T17:06:13;98224.13;;;11.15
64904;BMP280;51401;48.882;12.598;2022-09-20T17:08:39;98226.34;;;11.13
64904;BMP280;51401;48.882;12.598;2022-09-20T17:11:10;98229.25;;;11.08
64904;BMP280;51401;48.882;12.598;2022-09-20T17:13:37;98237.34;;;10.96
64904;BMP280;51401;48.882;12.598;2022-09-20T17:16:14;98238.44;;;10.95
64904;BMP280;51401;48.882;12.598;2022-09-20T17:18:40;98242.09;;;10.91
64904;BMP280;51401;48.882;12.598;2022-09-20T17:21:09;98248.31;;;10.80
64904;BMP280;51401;48.882;12.598;2022-09-20T17:23:35;98244.91;;;10.72
64904;BMP280;51401;48.882;12.598;2022-09-20T17:26:18;98248.47;;;10.57
64904;BMP280;51401;48.882;12.598;2022-09-20T17:28:46;98251.81;;;10.58
64904;BMP280;51401;48.882;12.598;2022-09-20T17:31:15;98260.34;;;10.58
64904;BMP280;51401;48.882;12.598;2022-09-20T17:33:41;98259.59;;;10.58
64904;BMP280;51401;48.882;12.598;2022-09-20T17:36:08;98265.41;;;10.48
64904;BMP280;51401;48.882;12.598;2022-09-20T17:38:36;98273.00;;;10.31
64904;BMP280;51401;48.882;12.598;2022-09-20T17:41:05;98270.00;;;10.29
64904;BMP280;51401;48.882;12.598;2022-09-20T17:43:34;98272.16;;;10.24
64904;BMP280;51401;48.882;12.598;2022-09-20T17:46:04;98275.84;;;10.19
64904;BMP280;51401;48.882;12.598;2022-09-20T17:48:30;98267.31;;;10.19
64904;BMP280;51401;48.882;12.598;2022-09-20T17:50:58;98286.06;;;10.09
64904;BMP280;51401;48.882;12.598;2022-09-20T17:53:24;98288.81;;;9.97
64904;BMP280;51401;48.882;12.598;2022-09-20T17:55:53;98297.53;;;9.82
64904;BMP280;51401;48.882;12.598;2022-09-20T17:58:19;98291.09;;;9.73
64904;BMP280;51401;48.882;12.598;2022-09-20T18:00:44;98292.41;;;9.60
64904;BMP280;51401;48.882;12.598;2022-09-20T18:03:09;98299.31;;;9.53
64904;BMP280;51401;48.882;12.598;2022-09-20T18:05:34;98295.88;;;9.45
64904;BMP280;51401;48.882;12.598;2022-09-20T18:08:00;98302.19;;;9.48
64904;BMP280;51401;48.882;12.598;2022-09-20T18:10:25;98304.28;;;9.39
64904;BMP280;51401;48.882;12.598;2022-09-20T18:12:53;98311.91;;;9.32
64904;BMP280;51401;48.882;12.598;2022-09-20T18:15:18;98318.47;;;9.26
64904;BMP280;51401;48.882;12.598;2022-09-20T18:17:43;98320.59;;;9.21
64904;BMP280;51401;48.882;12.598;2022-09-20T18:20:09;98325.97;;;9.12
64904;BMP280;51401;48.882;12.598;2022-09-20T18:22:34;98334.78;;;9.08
64904;BMP280;51401;48.882;12.598;2022-09-20T18:25:00;98334.34;;;9.03
64904;BMP280;51401;48.882;12.598;2022-09-20T18:27:25;98335.03;;;9.00
64904;BMP280;51401;48.882;12.598;2022-09-20T18:29:50;98344.13;;;8.94